createdAt,value
2019-03-15T09:17:05.468Z,0.90
2019-03-15T09:19:33.450Z,1.20
2019-03-15T09:22:00.789Z,1.00
2019-03-15T09:24:27.887Z,0.50
2019-03-15T09:26:54.658Z,0.50
2019-03-15T09:29:21.538Z,0.63
2019-03-15T09:31:48.613Z,0.73
2019-03-15T09:34:15.560Z,0.80
2019-03-15T09:36:49.966Z,0.57
2019-03-15T09:39:10.905Z,0.60
2019-03-15T09:41:39.975Z,0.70
2019-03-15T09:44:06.289Z,0.60
2019-03-15T09:46:33.059Z,0.60
2019-03-15T09:49:00.027Z,0.50
2019-03-15T09:51:26.794Z,0.62
2019-03-15T09:53:53.568Z,0.68
2019-03-15T09:56:20.628Z,0.50
2019-03-15T09:58:47.389Z,0.50
2019-03-15T10:01:14.258Z,0.40
2019-03-15T10:03:40.972Z,0.40
2019-03-15T10:06:14.842Z,0.40
2019-03-15T10:08:36.172Z,0.40
2019-03-15T10:11:03.132Z,0.20
2019-03-15T10:13:29.817Z,0.30
2019-03-15T10:15:56.593Z,0.30
2019-03-15T10:18:23.309Z,0.20
2019-03-15T10:20:50.051Z,0.20
2019-03-15T10:23:16.756Z,0.40
2019-03-15T10:25:48.432Z,0.42
2019-03-15T10:28:11.996Z,0.40
2019-03-15T10:30:39.180Z,0.30
2019-03-15T10:33:05.937Z,0.30
2019-03-15T10:35:32.714Z,0.30
2019-03-15T10:37:59.522Z,0.42
2019-03-15T10:40:26.355Z,0.20
2019-03-15T10:42:55.450Z,0.30
2019-03-15T10:45:21.598Z,0.30
2019-03-15T10:47:48.351Z,0.30
2019-03-15T10:50:15.321Z,0.30
2019-03-15T10:52:42.074Z,0.30
2019-03-15T10:55:09.062Z,0.30
2019-03-15T10:57:36.116Z,0.30
2019-03-15T11:00:02.989Z,0.30
2019-03-15T11:02:34.553Z,0.30
2019-03-15T11:05:01.321Z,0.40
2019-03-15T11:07:28.259Z,0.30
2019-03-15T11:09:54.974Z,0.30
2019-03-15T11:12:21.919Z,0.35
2019-03-15T11:14:48.990Z,0.30
2019-03-15T11:17:15.752Z,0.30
2019-03-15T11:19:42.515Z,0.45
2019-03-15T11:22:09.357Z,0.50
2019-03-15T11:24:39.316Z,0.30
2019-03-15T11:27:06.042Z,0.40
2019-03-15T11:29:32.620Z,0.45
2019-03-15T11:31:59.300Z,0.30
2019-03-15T11:34:26.057Z,0.20
2019-03-15T11:36:58.284Z,0.30
2019-03-15T11:39:21.213Z,0.40
2019-03-15T11:41:48.040Z,0.40
2019-03-15T11:44:14.734Z,0.20
2019-03-15T11:46:41.506Z,0.30
2019-03-15T11:49:08.255Z,0.40
2019-03-15T11:51:34.942Z,0.20
2019-03-15T11:54:01.742Z,0.30
2019-03-15T11:56:28.542Z,0.45
2019-03-15T11:58:55.422Z,0.30
2019-03-15T12:01:22.182Z,0.30
2019-03-15T12:03:53.351Z,0.37
2019-03-15T12:06:17.549Z,0.40
2019-03-15T12:08:44.209Z,0.50
2019-03-15T12:11:10.963Z,0.70
2019-03-15T12:13:37.528Z,0.37
2019-03-15T12:16:04.399Z,0.40
2019-03-15T12:18:31.320Z,0.20
2019-03-15T12:20:57.969Z,0.30
2019-03-15T12:23:24.676Z,0.30
2019-03-15T12:25:51.436Z,0.20
2019-03-15T12:28:18.513Z,0.50
2019-03-15T12:30:45.277Z,0.30
2019-03-15T12:33:12.144Z,0.20
2019-03-15T12:35:38.887Z,0.30
2019-03-15T12:38:05.667Z,0.20
2019-03-15T12:40:32.325Z,0.20
2019-03-15T12:42:59.290Z,0.33
2019-03-15T12:45:25.942Z,0.35
2019-03-15T12:47:52.717Z,0.35
2019-03-15T12:50:19.378Z,0.50
2019-03-15T12:52:48.264Z,0.75
2019-03-15T12:55:14.736Z,0.30
2019-03-15T12:57:41.496Z,0.40
2019-03-15T13:00:08.167Z,0.50
2019-03-15T13:02:34.917Z,0.50
2019-03-15T13:05:01.696Z,0.62
2019-03-15T13:07:28.554Z,0.30
2019-03-15T13:09:55.408Z,0.60
2019-03-15T13:12:22.067Z,0.45
2019-03-15T13:14:48.767Z,0.50
2019-03-15T13:17:15.607Z,0.50
2019-03-15T13:19:54.580Z,0.47
2019-03-15T13:22:10.868Z,0.88
2019-03-15T13:24:37.737Z,1.25
2019-03-15T13:27:07.813Z,1.35
2019-03-15T13:29:45.232Z,1.32
2019-03-15T13:32:12.120Z,1.07
2019-03-15T13:34:38.992Z,1.00
2019-03-15T13:37:05.767Z,1.50
2019-03-15T13:39:32.726Z,0.78
2019-03-15T13:41:59.586Z,0.95
2019-03-15T13:44:26.414Z,1.10
2019-03-15T13:46:53.426Z,0.82
2019-03-15T13:49:23.029Z,1.55
2019-03-15T13:51:49.774Z,1.02
2019-03-15T13:54:16.670Z,1.05
2019-03-15T13:56:43.810Z,2.10
2019-03-15T13:59:10.708Z,2.20
2019-03-15T14:01:37.615Z,2.17
2019-03-15T14:04:04.311Z,3.20
2019-03-15T14:06:31.158Z,2.55
2019-03-15T14:08:57.949Z,3.17
2019-03-15T14:11:24.587Z,2.60
2019-03-15T14:13:51.539Z,2.55
2019-03-15T14:16:18.248Z,2.70
2019-03-15T14:18:45.129Z,2.27
2019-03-15T14:21:11.775Z,2.20
2019-03-15T14:23:38.547Z,2.50
2019-03-15T14:26:05.981Z,2.60
2019-03-15T14:28:32.858Z,2.50
2019-03-15T14:30:59.754Z,2.30
2019-03-15T14:33:28.390Z,2.30
2019-03-15T14:35:54.992Z,2.40
2019-03-15T14:38:21.748Z,1.95
2019-03-15T14:40:48.620Z,2.50
2019-03-15T14:43:15.621Z,1.95
2019-03-15T14:45:42.629Z,1.85
2019-03-15T14:48:09.553Z,2.00
2019-03-15T14:50:36.415Z,2.55
2019-03-15T14:53:03.004Z,2.92
2019-03-15T14:55:30.195Z,2.30
2019-03-15T14:58:00.023Z,2.40
2019-03-15T15:00:25.455Z,0.80
2019-03-15T15:02:52.055Z,1.10
2019-03-15T15:05:18.775Z,1.35
2019-03-15T15:07:45.375Z,0.98
2019-03-15T15:10:12.150Z,0.72
2019-03-15T15:12:38.955Z,1.67
2019-03-15T15:15:05.795Z,1.25
2019-03-15T15:17:32.596Z,1.12
2019-03-15T15:19:59.398Z,1.10
2019-03-15T15:22:26.236Z,0.88
2019-03-15T15:24:53.035Z,1.12
2019-03-15T15:27:19.982Z,0.70
2019-03-15T15:29:46.676Z,0.95
2019-03-15T15:32:13.513Z,1.42
2019-03-15T15:34:40.146Z,1.05
2019-03-15T15:37:07.152Z,1.10
2019-03-15T15:39:34.028Z,1.10
2019-03-15T15:42:01.095Z,1.15
2019-03-15T15:44:27.751Z,0.95
2019-03-15T15:46:54.467Z,1.30
2019-03-15T15:49:21.376Z,1.85
2019-03-15T15:51:48.058Z,1.42
2019-03-15T15:54:14.780Z,1.10
2019-03-15T15:56:41.660Z,1.20
2019-03-15T15:59:08.320Z,1.40
2019-03-15T16:01:34.980Z,1.40
2019-03-15T16:04:01.646Z,1.60
2019-03-15T16:06:28.514Z,1.50
2019-03-15T16:08:55.254Z,1.35
2019-03-15T16:11:22.024Z,1.67
2019-03-15T16:13:48.785Z,1.60
2019-03-15T16:16:15.465Z,1.42
2019-03-15T16:18:42.172Z,1.60
2019-03-15T16:21:08.972Z,1.42
2019-03-15T16:23:35.635Z,1.65
2019-03-15T16:26:02.304Z,1.55
2019-03-15T16:28:31.851Z,1.70
2019-03-15T16:30:57.474Z,2.12
2019-03-15T16:33:24.195Z,1.87
2019-03-15T16:35:50.978Z,1.90
2019-03-15T16:38:18.063Z,1.32
2019-03-15T16:40:44.748Z,2.10
2019-03-15T16:43:11.363Z,1.75
2019-03-15T16:45:38.135Z,1.77
2019-03-15T16:48:05.002Z,2.52
2019-03-15T16:50:31.671Z,2.00
2019-03-15T16:52:58.333Z,1.90
2019-03-15T16:55:24.985Z,2.33
2019-03-15T16:57:51.718Z,2.22
2019-03-15T17:00:18.435Z,3.00
2019-03-15T17:02:45.061Z,2.95
2019-03-15T17:05:11.930Z,2.70
2019-03-15T17:07:38.585Z,2.72
2019-03-15T17:10:05.387Z,3.15
2019-03-15T17:12:32.105Z,2.42
2019-03-15T17:14:58.902Z,2.30
2019-03-15T17:17:25.697Z,3.25
2019-03-15T17:19:54.180Z,2.40
2019-03-15T17:22:20.696Z,2.52
2019-03-15T17:24:47.259Z,3.08
2019-03-15T17:27:13.796Z,3.50
2019-03-15T17:29:40.453Z,3.67
2019-03-15T17:32:07.119Z,3.37
2019-03-15T17:34:33.685Z,3.90
2019-03-15T17:37:06.645Z,5.87
2019-03-15T17:39:28.913Z,5.20
2019-03-15T17:41:55.504Z,5.60
2019-03-15T17:44:22.043Z,5.22
2019-03-15T17:46:48.798Z,5.33
2019-03-15T17:49:15.504Z,5.60
2019-03-15T17:51:42.266Z,5.60
2019-03-15T17:54:08.843Z,5.37
2019-03-15T17:56:35.524Z,6.28
2019-03-15T17:59:11.847Z,6.08
2019-03-15T18:01:30.531Z,7.28
2019-03-15T18:03:57.614Z,6.67
2019-03-15T18:06:24.356Z,7.55
2019-03-15T18:08:51.213Z,7.78
2019-03-15T18:11:18.192Z,6.85
2019-03-15T18:13:44.840Z,6.50
2019-03-15T18:16:11.510Z,5.90
2019-03-15T18:18:38.271Z,4.50
2019-03-15T18:21:04.994Z,4.58
2019-03-15T18:23:31.644Z,11.08
2019-03-15T18:25:58.456Z,9.65
2019-03-15T18:28:24.990Z,6.67
2019-03-15T18:30:51.708Z,5.85
2019-03-15T18:33:18.254Z,5.40
2019-03-15T18:35:45.173Z,4.97
2019-03-15T18:38:11.687Z,5.05
2019-03-15T18:40:38.369Z,4.58
2019-03-15T18:43:05.025Z,3.20
2019-03-15T18:45:31.615Z,3.60
2019-03-15T18:47:58.400Z,5.17
2019-03-15T18:50:25.183Z,4.55
2019-03-15T18:52:51.915Z,3.70
2019-03-15T18:55:18.616Z,3.67
2019-03-15T18:57:45.260Z,3.45
2019-03-15T19:00:11.920Z,3.90
2019-03-15T19:02:38.600Z,5.30
2019-03-15T19:05:05.194Z,7.15
2019-03-15T19:07:32.002Z,7.50
2019-03-15T19:09:58.854Z,8.85
2019-03-15T19:12:25.671Z,8.30
2019-03-15T19:14:52.492Z,7.78
2019-03-15T19:17:19.161Z,7.60
2019-03-15T19:19:45.799Z,8.90
2019-03-15T19:22:12.488Z,5.50
2019-03-15T19:24:39.289Z,8.73
2019-03-15T19:27:05.994Z,10.00
2019-03-15T19:29:32.752Z,12.00
2019-03-15T19:31:59.530Z,10.38
2019-03-15T19:34:26.301Z,6.33
2019-03-15T19:36:52.953Z,5.83
2019-03-15T19:39:19.577Z,5.40
2019-03-15T19:41:46.300Z,5.05
2019-03-15T19:44:13.032Z,5.90
2019-03-15T19:46:39.687Z,4.80
2019-03-15T19:49:06.372Z,4.65
2019-03-15T19:51:33.207Z,6.17
2019-03-15T19:53:59.716Z,6.37
2019-03-15T19:56:26.527Z,8.10
2019-03-15T19:58:53.399Z,7.05
2019-03-15T20:01:20.081Z,8.75
2019-03-15T20:03:46.679Z,8.98
2019-03-15T20:06:13.382Z,10.60
2019-03-15T20:08:39.952Z,10.58
2019-03-15T20:11:06.775Z,12.80
2019-03-15T20:13:33.559Z,12.35
2019-03-15T20:16:00.194Z,10.08
2019-03-15T20:18:26.795Z,9.53
2019-03-15T20:20:53.257Z,8.98
2019-03-15T20:23:19.811Z,7.72
2019-03-15T20:25:46.558Z,9.08
2019-03-15T20:28:13.075Z,8.53
2019-03-15T20:30:51.355Z,9.85
2019-03-15T20:33:08.161Z,7.60
2019-03-15T20:35:34.925Z,7.60
2019-03-15T20:38:01.661Z,8.03
2019-03-15T20:40:28.216Z,6.55
2019-03-15T20:42:54.936Z,4.80
2019-03-15T20:45:21.687Z,4.55
2019-03-15T20:47:48.433Z,5.28
2019-03-15T20:50:15.108Z,4.33
2019-03-15T20:52:41.686Z,4.65
2019-03-15T20:55:08.435Z,6.03
2019-03-15T20:57:35.214Z,5.70
2019-03-15T21:00:01.941Z,6.80
2019-03-15T21:02:28.614Z,5.90
2019-03-15T21:04:55.267Z,6.22
2019-03-15T21:07:21.937Z,5.17
2019-03-15T21:09:48.579Z,5.05
2019-03-15T21:12:15.098Z,5.80
2019-03-15T21:14:41.639Z,3.15
2019-03-15T21:17:08.164Z,2.22
2019-03-15T21:19:34.939Z,2.65
2019-03-15T21:22:01.700Z,2.70
2019-03-15T21:24:28.224Z,2.35
2019-03-15T21:26:55.142Z,2.08
2019-03-15T21:29:21.662Z,2.10
2019-03-15T21:31:48.325Z,1.90
2019-03-15T21:34:14.823Z,1.98
2019-03-15T21:36:41.462Z,2.77
2019-03-15T21:39:08.037Z,2.02
2019-03-15T21:41:34.677Z,2.50
2019-03-15T21:44:01.395Z,3.20
2019-03-15T21:46:27.905Z,2.00
2019-03-15T21:48:57.747Z,1.98
2019-03-15T21:51:24.366Z,1.32
2019-03-15T21:53:50.968Z,1.32
2019-03-15T21:56:17.562Z,1.72
2019-03-15T21:58:44.055Z,1.60
2019-03-15T22:01:10.680Z,1.70
2019-03-15T22:03:37.217Z,1.65
2019-03-15T22:06:03.935Z,1.62
2019-03-15T22:08:30.663Z,0.95
2019-03-15T22:10:57.365Z,1.10
2019-03-15T22:13:23.894Z,0.90
2019-03-15T22:15:50.497Z,1.60
2019-03-15T22:18:17.023Z,1.85
2019-03-15T22:20:43.659Z,1.85
